| |
Missouri Department of Transportation

Social Media Facebook Twitter Flickr Instagram YouTube RSS

Current AWOS Information

 
AWOS Home - General Info for all Airports
Current AWOS for all Airports - Current METAR for all Airports
Glossary - Disclaimer - Other Links


HANNIBAL--HANNIBAL REGIONAL--KHAE
 
Recent AWOS History
 
02/09/16     04:27 PM CST      22:27 GMT
Air Temperature 24°F (-4°C ) 1st Cloud Layer Scattered at 3,700 feet
Dew Point 7°F (-14°C) 2nd Cloud Layer  
Barometric Pressure 30.08 in Hg. 3rd Cloud Layer  
Wind Speed 20 mph (18 knots) Density Altitude  
Peak Wind Gusts 25 mph (22 knots) Variable Wind Directions  
Wind Direction Quadrant(300°) Variable Visibility  
Visibility 10 statute miles  

Thunderstorm and Precipitation Identification: 
Thunderstorm Remarks: 

Current METAR Record: METAR KHAE 092227Z AUTO 30018G22KT 10SM SCT037 M04/M14 A3008 RMK AO2

 

 

 

About Us
How Do I...
Contact Us
Missouri Department of Transportation
Central Office
105 W. Capitol Avenue
Jefferson City, MO 65102
1-888-ASK-MODOT (275-6636)
1-866-831-6277 (Motor Carrier Services)
Driver's License Offices
horz_bar
| | |
Missouri State Government
© 2013 Missouri Department of Transportation. All Rights Reserved.   Privacy Policy.
 
 
 
 
RSS FeedYoutubeBlogFlickrTwitter Facebook